sensor_id;sensor_type;location;lat;lon;timestamp;P1;durP1;ratioP1;P2;durP2;ratioP2
12784;SDS011;6456;42.680;23.260;2023-12-20T00:02:22;72.00;;;48.33;;
12784;SDS011;6456;42.680;23.260;2023-12-20T00:04:52;87.83;;;51.57;;
12784;SDS011;6456;42.680;23.260;2023-12-20T00:07:22;81.07;;;49.97;;
12784;SDS011;6456;42.680;23.260;2023-12-20T00:09:51;79.70;;;48.40;;
12784;SDS011;6456;42.680;23.260;2023-12-20T00:12:18;75.37;;;48.80;;
12784;SDS011;6456;42.680;23.260;2023-12-20T00:14:45;76.70;;;48.27;;
12784;SDS011;6456;42.680;23.260;2023-12-20T00:17:13;77.53;;;48.87;;
12784;SDS011;6456;42.680;23.260;2023-12-20T00:19:41;79.37;;;48.37;;
12784;SDS011;6456;42.680;23.260;2023-12-20T00:22:08;75.00;;;47.40;;
12784;SDS011;6456;42.680;23.260;2023-12-20T00:24:37;75.53;;;47.37;;
12784;SDS011;6456;42.680;23.260;2023-12-20T00:27:14;67.90;;;41.03;;
12784;SDS011;6456;42.680;23.260;2023-12-20T00:29:41;51.20;;;35.97;;
12784;SDS011;6456;42.680;23.260;2023-12-20T00:32:14;57.97;;;39.37;;
12784;SDS011;6456;42.680;23.260;2023-12-20T00:34:42;52.77;;;36.10;;
12784;SDS011;6456;42.680;23.260;2023-12-20T00:37:09;41.83;;;27.33;;
12784;SDS011;6456;42.680;23.260;2023-12-20T00:39:37;41.23;;;27.90;;
12784;SDS011;6456;42.680;23.260;2023-12-20T00:42:04;43.53;;;28.37;;
12784;SDS011;6456;42.680;23.260;2023-12-20T00:44:35;46.43;;;31.43;;
12784;SDS011;6456;42.680;23.260;2023-12-20T00:47:05;45.53;;;28.30;;
12784;SDS011;6456;42.680;23.260;2023-12-20T00:49:35;42.83;;;28.53;;
12784;SDS011;6456;42.680;23.260;2023-12-20T00:52:03;37.10;;;25.30;;
12784;SDS011;6456;42.680;23.260;2023-12-20T00:54:34;42.60;;;27.27;;
12784;SDS011;6456;42.680;23.260;2023-12-20T00:57:04;41.77;;;28.43;;
12784;SDS011;6456;42.680;23.260;2023-12-20T00:59:31;41.83;;;28.07;;
12784;SDS011;6456;42.680;23.260;2023-12-20T01:02:00;40.13;;;25.70;;
12784;SDS011;6456;42.680;23.260;2023-12-20T01:04:29;36.93;;;24.40;;
12784;SDS011;6456;42.680;23.260;2023-12-20T01:07:02;35.43;;;22.97;;
12784;SDS011;6456;42.680;23.260;2023-12-20T01:09:29;36.50;;;23.57;;
12784;SDS011;6456;42.680;23.260;2023-12-20T01:11:56;37.03;;;23.93;;
12784;SDS011;6456;42.680;23.260;2023-12-20T01:14:23;32.13;;;23.60;;
12784;SDS011;6456;42.680;23.260;2023-12-20T01:16:53;38.23;;;26.30;;
12784;SDS011;6456;42.680;23.260;2023-12-20T01:19:21;41.93;;;28.47;;
12784;SDS011;6456;42.680;23.260;2023-12-20T01:21:49;36.87;;;26.13;;
12784;SDS011;6456;42.680;23.260;2023-12-20T01:24:16;43.97;;;27.90;;
12784;SDS011;6456;42.680;23.260;2023-12-20T01:26:43;40.27;;;28.17;;
12784;SDS011;6456;42.680;23.260;2023-12-20T01:29:10;47.50;;;27.73;;
12784;SDS011;6456;42.680;23.260;2023-12-20T01:31:38;43.37;;;29.33;;
12784;SDS011;6456;42.680;23.260;2023-12-20T01:34:05;43.70;;;30.20;;
12784;SDS011;6456;42.680;23.260;2023-12-20T01:36:36;47.67;;;30.33;;
12784;SDS011;6456;42.680;23.260;2023-12-20T01:39:05;44.47;;;30.40;;
12784;SDS011;6456;42.680;23.260;2023-12-20T01:41:33;43.77;;;30.97;;
12784;SDS011;6456;42.680;23.260;2023-12-20T01:44:02;45.50;;;30.83;;
12784;SDS011;6456;42.680;23.260;2023-12-20T01:46:29;49.47;;;32.57;;
12784;SDS011;6456;42.680;23.260;2023-12-20T01:48:57;47.47;;;32.20;;
12784;SDS011;6456;42.680;23.260;2023-12-20T01:51:24;50.53;;;31.30;;
12784;SDS011;6456;42.680;23.260;2023-12-20T01:53:55;43.10;;;30.73;;
12784;SDS011;6456;42.680;23.260;2023-12-20T01:56:24;46.77;;;30.63;;
12784;SDS011;6456;42.680;23.260;2023-12-20T01:58:53;41.40;;;28.23;;
12784;SDS011;6456;42.680;23.260;2023-12-20T02:01:22;43.23;;;28.83;;
12784;SDS011;6456;42.680;23.260;2023-12-20T02:03:49;40.77;;;26.60;;
12784;SDS011;6456;42.680;23.260;2023-12-20T02:06:18;38.03;;;25.50;;
12784;SDS011;6456;42.680;23.260;2023-12-20T02:08:48;35.70;;;26.07;;
12784;SDS011;6456;42.680;23.260;2023-12-20T02:11:17;40.67;;;27.47;;
12784;SDS011;6456;42.680;23.260;2023-12-20T02:13:44;42.37;;;28.97;;
12784;SDS011;6456;42.680;23.260;2023-12-20T02:16:11;40.10;;;27.53;;
12784;SDS011;6456;42.680;23.260;2023-12-20T02:18:39;37.93;;;26.20;;
12784;SDS011;6456;42.680;23.260;2023-12-20T02:21:06;39.77;;;27.27;;
12784;SDS011;6456;42.680;23.260;2023-12-20T02:23:34;39.17;;;26.90;;
12784;SDS011;6456;42.680;23.260;2023-12-20T02:26:01;42.03;;;27.20;;
12784;SDS011;6456;42.680;23.260;2023-12-20T02:28:28;46.77;;;30.50;;
12784;SDS011;6456;42.680;23.260;2023-12-20T02:30:57;45.00;;;30.17;;
12784;SDS011;6456;42.680;23.260;2023-12-20T02:33:24;39.47;;;27.67;;
12784;SDS011;6456;42.680;23.260;2023-12-20T02:35:51;47.13;;;31.40;;
12784;SDS011;6456;42.680;23.260;2023-12-20T02:38:19;33.20;;;24.20;;
12784;SDS011;6456;42.680;23.260;2023-12-20T02:40:47;40.13;;;27.43;;
12784;SDS011;6456;42.680;23.260;2023-12-20T02:43:14;39.73;;;27.17;;
12784;SDS011;6456;42.680;23.260;2023-12-20T02:45:41;53.63;;;34.30;;
12784;SDS011;6456;42.680;23.260;2023-12-20T02:48:08;42.80;;;27.77;;
12784;SDS011;6456;42.680;23.260;2023-12-20T02:50:35;38.97;;;27.87;;
12784;SDS011;6456;42.680;23.260;2023-12-20T02:53:02;40.63;;;27.70;;
12784;SDS011;6456;42.680;23.260;2023-12-20T02:55:30;42.70;;;28.27;;
12784;SDS011;6456;42.680;23.260;2023-12-20T02:57:58;47.10;;;30.83;;
12784;SDS011;6456;42.680;23.260;2023-12-20T03:00:25;47.93;;;29.53;;
12784;SDS011;6456;42.680;23.260;2023-12-20T03:02:52;46.47;;;29.87;;
12784;SDS011;6456;42.680;23.260;2023-12-20T03:05:20;37.03;;;26.63;;
12784;SDS011;6456;42.680;23.260;2023-12-20T03:07:46;41.50;;;27.47;;
12784;SDS011;6456;42.680;23.260;2023-12-20T03:10:13;45.20;;;28.70;;
12784;SDS011;6456;42.680;23.260;2023-12-20T03:12:40;41.20;;;28.83;;
12784;SDS011;6456;42.680;23.260;2023-12-20T03:15:10;41.97;;;29.00;;
12784;SDS011;6456;42.680;23.260;2023-12-20T03:17:38;41.53;;;27.67;;
12784;SDS011;6456;42.680;23.260;2023-12-20T03:20:06;36.93;;;25.10;;
12784;SDS011;6456;42.680;23.260;2023-12-20T03:22:34;41.57;;;27.40;;
12784;SDS011;6456;42.680;23.260;2023-12-20T03:25:01;42.53;;;27.30;;
12784;SDS011;6456;42.680;23.260;2023-12-20T03:27:28;45.17;;;30.63;;
12784;SDS011;6456;42.680;23.260;2023-12-20T03:29:56;41.53;;;27.83;;
12784;SDS011;6456;42.680;23.260;2023-12-20T03:35:10;41.33;;;26.83;;
12784;SDS011;6456;42.680;23.260;2023-12-20T03:37:38;46.43;;;29.60;;
12784;SDS011;6456;42.680;23.260;2023-12-20T03:40:05;40.20;;;27.50;;
12784;SDS011;6456;42.680;23.260;2023-12-20T03:42:33;43.40;;;28.33;;
12784;SDS011;6456;42.680;23.260;2023-12-20T03:45:00;43.23;;;29.83;;
12784;SDS011;6456;42.680;23.260;2023-12-20T03:47:27;46.23;;;29.80;;
12784;SDS011;6456;42.680;23.260;2023-12-20T03:49:56;49.57;;;33.80;;
12784;SDS011;6456;42.680;23.260;2023-12-20T03:52:23;49.03;;;31.60;;
12784;SDS011;6456;42.680;23.260;2023-12-20T03:54:50;53.03;;;34.23;;
12784;SDS011;6456;42.680;23.260;2023-12-20T03:57:17;56.67;;;36.07;;
12784;SDS011;6456;42.680;23.260;2023-12-20T03:59:44;54.50;;;36.20;;
12784;SDS011;6456;42.680;23.260;2023-12-20T04:02:12;49.00;;;32.80;;
12784;SDS011;6456;42.680;23.260;2023-12-20T04:04:39;48.57;;;33.00;;
12784;SDS011;6456;42.680;23.260;2023-12-20T04:07:07;52.83;;;34.20;;
12784;SDS011;6456;42.680;23.260;2023-12-20T04:09:34;51.27;;;35.50;;
12784;SDS011;6456;42.680;23.260;2023-12-20T04:12:01;52.67;;;34.17;;
12784;SDS011;6456;42.680;23.260;2023-12-20T04:14:30;53.00;;;35.17;;
12784;SDS011;6456;42.680;23.260;2023-12-20T04:16:57;53.43;;;35.97;;
12784;SDS011;6456;42.680;23.260;2023-12-20T04:19:24;55.50;;;37.10;;
12784;SDS011;6456;42.680;23.260;2023-12-20T04:21:51;54.47;;;36.53;;
12784;SDS011;6456;42.680;23.260;2023-12-20T04:24:19;55.50;;;36.80;;
12784;SDS011;6456;42.680;23.260;2023-12-20T04:26:47;55.33;;;36.70;;
12784;SDS011;6456;42.680;23.260;2023-12-20T04:29:14;57.90;;;36.87;;
12784;SDS011;6456;42.680;23.260;2023-12-20T04:31:41;53.53;;;35.50;;
12784;SDS011;6456;42.680;23.260;2023-12-20T04:34:08;55.07;;;34.97;;
12784;SDS011;6456;42.680;23.260;2023-12-20T04:36:35;55.03;;;36.60;;
12784;SDS011;6456;42.680;23.260;2023-12-20T04:39:03;59.97;;;37.97;;
12784;SDS011;6456;42.680;23.260;2023-12-20T04:41:31;53.20;;;36.27;;
12784;SDS011;6456;42.680;23.260;2023-12-20T04:43:58;50.20;;;34.90;;
12784;SDS011;6456;42.680;23.260;2023-12-20T04:46:25;55.57;;;36.93;;
12784;SDS011;6456;42.680;23.260;2023-12-20T04:48:52;57.77;;;35.80;;
12784;SDS011;6456;42.680;23.260;2023-12-20T04:51:20;52.97;;;34.50;;
12784;SDS011;6456;42.680;23.260;2023-12-20T04:53:47;50.57;;;34.00;;
12784;SDS011;6456;42.680;23.260;2023-12-20T04:56:14;44.60;;;31.13;;
12784;SDS011;6456;42.680;23.260;2023-12-20T04:58:43;48.57;;;32.73;;
12784;SDS011;6456;42.680;23.260;2023-12-20T05:01:10;59.20;;;37.03;;
12784;SDS011;6456;42.680;23.260;2023-12-20T05:03:38;62.50;;;37.03;;
12784;SDS011;6456;42.680;23.260;2023-12-20T05:06:05;70.30;;;42.40;;
12784;SDS011;6456;42.680;23.260;2023-12-20T05:08:32;63.60;;;40.47;;
12784;SDS011;6456;42.680;23.260;2023-12-20T05:10:59;68.03;;;41.23;;
12784;SDS011;6456;42.680;23.260;2023-12-20T05:13:29;63.37;;;38.30;;
12784;SDS011;6456;42.680;23.260;2023-12-20T05:15:58;49.13;;;32.27;;
12784;SDS011;6456;42.680;23.260;2023-12-20T05:18:25;47.60;;;29.93;;
12784;SDS011;6456;42.680;23.260;2023-12-20T05:20:52;44.20;;;29.07;;
12784;SDS011;6456;42.680;23.260;2023-12-20T05:23:19;43.47;;;29.73;;
12784;SDS011;6456;42.680;23.260;2023-12-20T05:25:46;49.27;;;31.13;;
12784;SDS011;6456;42.680;23.260;2023-12-20T05:28:14;45.50;;;29.97;;
12784;SDS011;6456;42.680;23.260;2023-12-20T05:30:42;48.80;;;33.23;;
12784;SDS011;6456;42.680;23.260;2023-12-20T05:33:11;56.67;;;34.87;;
12784;SDS011;6456;42.680;23.260;2023-12-20T05:35:39;66.27;;;40.90;;
12784;SDS011;6456;42.680;23.260;2023-12-20T05:38:06;59.27;;;39.07;;
12784;SDS011;6456;42.680;23.260;2023-12-20T05:40:33;62.77;;;40.70;;
12784;SDS011;6456;42.680;23.260;2023-12-20T05:43:00;56.80;;;38.73;;
12784;SDS011;6456;42.680;23.260;2023-12-20T05:45:27;63.10;;;40.53;;
12784;SDS011;6456;42.680;23.260;2023-12-20T05:47:54;77.33;;;48.33;;
12784;SDS011;6456;42.680;23.260;2023-12-20T05:50:23;75.70;;;46.63;;
12784;SDS011;6456;42.680;23.260;2023-12-20T05:52:50;80.20;;;49.57;;
12784;SDS011;6456;42.680;23.260;2023-12-20T05:55:17;84.67;;;48.33;;
12784;SDS011;6456;42.680;23.260;2023-12-20T05:57:44;85.10;;;47.30;;
12784;SDS011;6456;42.680;23.260;2023-12-20T06:00:12;78.23;;;44.87;;
12784;SDS011;6456;42.680;23.260;2023-12-20T06:02:40;70.60;;;41.07;;
12784;SDS011;6456;42.680;23.260;2023-12-20T06:05:08;63.67;;;37.73;;
12784;SDS011;6456;42.680;23.260;2023-12-20T06:07:36;65.97;;;34.17;;
12784;SDS011;6456;42.680;23.260;2023-12-20T06:10:03;67.00;;;35.60;;
12784;SDS011;6456;42.680;23.260;2023-12-20T06:12:31;74.60;;;36.33;;
12784;SDS011;6456;42.680;23.260;2023-12-20T06:15:00;65.00;;;35.63;;
12784;SDS011;6456;42.680;23.260;2023-12-20T06:17:28;73.80;;;35.07;;
12784;SDS011;6456;42.680;23.260;2023-12-20T06:19:56;70.97;;;33.97;;
12784;SDS011;6456;42.680;23.260;2023-12-20T06:22:23;66.20;;;33.57;;
12784;SDS011;6456;42.680;23.260;2023-12-20T06:24:52;71.27;;;35.80;;
12784;SDS011;6456;42.680;23.260;2023-12-20T06:27:19;80.13;;;38.03;;
12784;SDS011;6456;42.680;23.260;2023-12-20T06:29:46;79.27;;;38.43;;
12784;SDS011;6456;42.680;23.260;2023-12-20T06:32:13;87.30;;;39.40;;
12784;SDS011;6456;42.680;23.260;2023-12-20T06:34:40;173.40;;;82.43;;
12784;SDS011;6456;42.680;23.260;2023-12-20T06:37:07;137.37;;;68.50;;
12784;SDS011;6456;42.680;23.260;2023-12-20T06:39:34;127.23;;;58.47;;
12784;SDS011;6456;42.680;23.260;2023-12-20T06:42:03;116.77;;;53.40;;
12784;SDS011;6456;42.680;23.260;2023-12-20T06:44:30;99.90;;;44.93;;
12784;SDS011;6456;42.680;23.260;2023-12-20T06:47:04;74.67;;;37.33;;
12784;SDS011;6456;42.680;23.260;2023-12-20T06:49:33;74.13;;;33.17;;
12784;SDS011;6456;42.680;23.260;2023-12-20T06:52:00;63.00;;;33.57;;
12784;SDS011;6456;42.680;23.260;2023-12-20T06:54:27;69.47;;;32.60;;
12784;SDS011;6456;42.680;23.260;2023-12-20T06:56:54;66.03;;;32.97;;
12784;SDS011;6456;42.680;23.260;2023-12-20T06:59:23;57.57;;;30.00;;
12784;SDS011;6456;42.680;23.260;2023-12-20T07:01:50;55.57;;;28.77;;
12784;SDS011;6456;42.680;23.260;2023-12-20T07:04:17;62.37;;;32.13;;
12784;SDS011;6456;42.680;23.260;2023-12-20T07:06:47;64.63;;;32.60;;
12784;SDS011;6456;42.680;23.260;2023-12-20T07:09:16;66.60;;;34.60;;
12784;SDS011;6456;42.680;23.260;2023-12-20T07:11:43;83.27;;;41.60;;
12784;SDS011;6456;42.680;23.260;2023-12-20T07:14:10;81.07;;;39.57;;
12784;SDS011;6456;42.680;23.260;2023-12-20T07:16:39;71.43;;;38.70;;
12784;SDS011;6456;42.680;23.260;2023-12-20T07:19:06;82.40;;;40.80;;
12784;SDS011;6456;42.680;23.260;2023-12-20T07:21:33;87.10;;;42.90;;
12784;SDS011;6456;42.680;23.260;2023-12-20T07:24:00;81.10;;;38.23;;
12784;SDS011;6456;42.680;23.260;2023-12-20T07:26:27;77.03;;;35.93;;
12784;SDS011;6456;42.680;23.260;2023-12-20T07:28:54;85.67;;;41.80;;
12784;SDS011;6456;42.680;23.260;2023-12-20T07:31:21;87.97;;;44.07;;
12784;SDS011;6456;42.680;23.260;2023-12-20T07:33:50;81.83;;;40.93;;
12784;SDS011;6456;42.680;23.260;2023-12-20T07:36:19;75.60;;;40.47;;
12784;SDS011;6456;42.680;23.260;2023-12-20T07:38:46;79.50;;;40.23;;
12784;SDS011;6456;42.680;23.260;2023-12-20T07:41:13;79.87;;;39.77;;
12784;SDS011;6456;42.680;23.260;2023-12-20T07:43:41;75.60;;;38.47;;
12784;SDS011;6456;42.680;23.260;2023-12-20T07:46:08;58.60;;;34.13;;
12784;SDS011;6456;42.680;23.260;2023-12-20T07:48:35;57.87;;;33.70;;
12784;SDS011;6456;42.680;23.260;2023-12-20T07:51:04;68.10;;;36.90;;
12784;SDS011;6456;42.680;23.260;2023-12-20T07:53:33;55.27;;;32.60;;
12784;SDS011;6456;42.680;23.260;2023-12-20T07:56:00;57.47;;;33.87;;
12784;SDS011;6456;42.680;23.260;2023-12-20T07:58:27;57.20;;;35.27;;
12784;SDS011;6456;42.680;23.260;2023-12-20T08:00:55;66.77;;;39.57;;
12784;SDS011;6456;42.680;23.260;2023-12-20T08:03:22;97.53;;;49.53;;
12784;SDS011;6456;42.680;23.260;2023-12-20T08:05:49;101.43;;;50.63;;
12784;SDS011;6456;42.680;23.260;2023-12-20T08:08:17;104.47;;;52.27;;
12784;SDS011;6456;42.680;23.260;2023-12-20T08:10:44;97.40;;;51.50;;
12784;SDS011;6456;42.680;23.260;2023-12-20T08:13:11;108.07;;;54.60;;
12784;SDS011;6456;42.680;23.260;2023-12-20T08:15:38;108.77;;;56.30;;
12784;SDS011;6456;42.680;23.260;2023-12-20T08:18:07;101.13;;;54.47;;
12784;SDS011;6456;42.680;23.260;2023-12-20T08:20:34;105.87;;;56.03;;
12784;SDS011;6456;42.680;23.260;2023-12-20T08:23:01;99.03;;;53.10;;
12784;SDS011;6456;42.680;23.260;2023-12-20T08:25:29;100.47;;;56.67;;
12784;SDS011;6456;42.680;23.260;2023-12-20T08:27:57;118.73;;;59.90;;
12784;SDS011;6456;42.680;23.260;2023-12-20T08:30:24;119.37;;;61.07;;
12784;SDS011;6456;42.680;23.260;2023-12-20T08:32:51;123.77;;;65.80;;
12784;SDS011;6456;42.680;23.260;2023-12-20T08:35:18;143.70;;;76.50;;
12784;SDS011;6456;42.680;23.260;2023-12-20T08:37:45;133.97;;;70.03;;
12784;SDS011;6456;42.680;23.260;2023-12-20T08:40:12;134.77;;;72.23;;
12784;SDS011;6456;42.680;23.260;2023-12-20T08:42:40;121.63;;;66.63;;
12784;SDS011;6456;42.680;23.260;2023-12-20T08:45:07;116.97;;;64.07;;
12784;SDS011;6456;42.680;23.260;2023-12-20T08:47:35;112.17;;;60.10;;
12784;SDS011;6456;42.680;23.260;2023-12-20T08:50:02;107.97;;;58.37;;
12784;SDS011;6456;42.680;23.260;2023-12-20T08:52:29;126.33;;;62.27;;
12784;SDS011;6456;42.680;23.260;2023-12-20T08:54:56;118.60;;;66.90;;
12784;SDS011;6456;42.680;23.260;2023-12-20T08:57:23;118.03;;;65.83;;
12784;SDS011;6456;42.680;23.260;2023-12-20T08:59:51;125.40;;;67.33;;
12784;SDS011;6456;42.680;23.260;2023-12-20T09:02:18;125.90;;;68.80;;
12784;SDS011;6456;42.680;23.260;2023-12-20T09:04:45;114.03;;;63.47;;
12784;SDS011;6456;42.680;23.260;2023-12-20T09:07:22;117.03;;;62.53;;
12784;SDS011;6456;42.680;23.260;2023-12-20T09:09:49;108.10;;;60.50;;
12784;SDS011;6456;42.680;23.260;2023-12-20T09:12:17;109.67;;;59.17;;
12784;SDS011;6456;42.680;23.260;2023-12-20T09:14:45;102.57;;;57.83;;
12784;SDS011;6456;42.680;23.260;2023-12-20T09:17:13;99.23;;;58.00;;
12784;SDS011;6456;42.680;23.260;2023-12-20T09:19:41;93.33;;;57.20;;
12784;SDS011;6456;42.680;23.260;2023-12-20T09:22:11;92.00;;;54.80;;
12784;SDS011;6456;42.680;23.260;2023-12-20T09:24:38;92.97;;;54.80;;
12784;SDS011;6456;42.680;23.260;2023-12-20T09:27:05;110.93;;;57.63;;
12784;SDS011;6456;42.680;23.260;2023-12-20T09:29:32;102.80;;;56.30;;
12784;SDS011;6456;42.680;23.260;2023-12-20T09:31:59;104.83;;;57.90;;
12784;SDS011;6456;42.680;23.260;2023-12-20T09:34:28;110.60;;;56.37;;
12784;SDS011;6456;42.680;23.260;2023-12-20T09:36:55;110.17;;;58.00;;
12784;SDS011;6456;42.680;23.260;2023-12-20T09:39:22;110.30;;;57.40;;
12784;SDS011;6456;42.680;23.260;2023-12-20T09:41:51;111.83;;;59.03;;
12784;SDS011;6456;42.680;23.260;2023-12-20T09:44:26;96.57;;;54.00;;
12784;SDS011;6456;42.680;23.260;2023-12-20T09:46:54;95.70;;;56.20;;
12784;SDS011;6456;42.680;23.260;2023-12-20T09:49:22;106.17;;;57.53;;
12784;SDS011;6456;42.680;23.260;2023-12-20T09:51:51;102.20;;;57.37;;
12784;SDS011;6456;42.680;23.260;2023-12-20T09:54:18;99.80;;;56.13;;
12784;SDS011;6456;42.680;23.260;2023-12-20T09:56:47;105.67;;;59.33;;
12784;SDS011;6456;42.680;23.260;2023-12-20T09:59:14;106.13;;;58.27;;
12784;SDS011;6456;42.680;23.260;2023-12-20T10:01:42;117.03;;;62.17;;
12784;SDS011;6456;42.680;23.260;2023-12-20T10:04:10;110.70;;;60.90;;
12784;SDS011;6456;42.680;23.260;2023-12-20T10:06:39;127.97;;;67.60;;
12784;SDS011;6456;42.680;23.260;2023-12-20T10:09:08;111.93;;;61.80;;
12784;SDS011;6456;42.680;23.260;2023-12-20T10:11:35;115.77;;;64.57;;
12784;SDS011;6456;42.680;23.260;2023-12-20T10:14:03;121.23;;;64.83;;
12784;SDS011;6456;42.680;23.260;2023-12-20T10:16:31;117.77;;;64.83;;
12784;SDS011;6456;42.680;23.260;2023-12-20T10:18:59;131.63;;;74.17;;
12784;SDS011;6456;42.680;23.260;2023-12-20T10:21:27;130.50;;;76.93;;
12784;SDS011;6456;42.680;23.260;2023-12-20T10:23:54;128.17;;;76.43;;
12784;SDS011;6456;42.680;23.260;2023-12-20T10:26:23;131.47;;;74.77;;
12784;SDS011;6456;42.680;23.260;2023-12-20T10:28:51;135.80;;;72.73;;
12784;SDS011;6456;42.680;23.260;2023-12-20T10:31:26;130.83;;;76.37;;
12784;SDS011;6456;42.680;23.260;2023-12-20T10:33:55;125.17;;;72.23;;
12784;SDS011;6456;42.680;23.260;2023-12-20T10:36:25;137.93;;;76.63;;
12784;SDS011;6456;42.680;23.260;2023-12-20T10:38:53;125.43;;;72.70;;
12784;SDS011;6456;42.680;23.260;2023-12-20T10:41:24;127.30;;;78.07;;
12784;SDS011;6456;42.680;23.260;2023-12-20T10:43:53;134.13;;;77.20;;
12784;SDS011;6456;42.680;23.260;2023-12-20T10:46:22;123.80;;;73.93;;
12784;SDS011;6456;42.680;23.260;2023-12-20T10:48:51;121.50;;;71.03;;
12784;SDS011;6456;42.680;23.260;2023-12-20T10:51:20;117.10;;;68.80;;
12784;SDS011;6456;42.680;23.260;2023-12-20T10:53:48;120.63;;;70.90;;
12784;SDS011;6456;42.680;23.260;2023-12-20T10:56:15;121.70;;;71.73;;
12784;SDS011;6456;42.680;23.260;2023-12-20T10:58:45;117.03;;;66.80;;
12784;SDS011;6456;42.680;23.260;2023-12-20T11:01:13;115.77;;;66.07;;
12784;SDS011;6456;42.680;23.260;2023-12-20T11:03:43;107.63;;;66.73;;
12784;SDS011;6456;42.680;23.260;2023-12-20T11:06:19;115.80;;;65.20;;
12784;SDS011;6456;42.680;23.260;2023-12-20T11:09:04;115.07;;;66.00;;
12784;SDS011;6456;42.680;23.260;2023-12-20T11:11:43;112.83;;;65.27;;
12784;SDS011;6456;42.680;23.260;2023-12-20T11:14:22;114.30;;;64.00;;
12784;SDS011;6456;42.680;23.260;2023-12-20T11:17:04;102.37;;;61.63;;
12784;SDS011;6456;42.680;23.260;2023-12-20T11:19:32;107.70;;;61.57;;
12784;SDS011;6456;42.680;23.260;2023-12-20T11:22:03;103.17;;;61.40;;
12784;SDS011;6456;42.680;23.260;2023-12-20T11:24:31;106.40;;;61.83;;
12784;SDS011;6456;42.680;23.260;2023-12-20T11:26:59;99.23;;;60.03;;
12784;SDS011;6456;42.680;23.260;2023-12-20T11:29:33;109.30;;;62.07;;
12784;SDS011;6456;42.680;23.260;2023-12-20T11:32:02;110.17;;;61.77;;
12784;SDS011;6456;42.680;23.260;2023-12-20T11:34:32;107.10;;;63.67;;
12784;SDS011;6456;42.680;23.260;2023-12-20T11:37:02;121.13;;;64.80;;
12784;SDS011;6456;42.680;23.260;2023-12-20T11:39:30;112.63;;;65.63;;
12784;SDS011;6456;42.680;23.260;2023-12-20T11:41:58;117.13;;;65.33;;
12784;SDS011;6456;42.680;23.260;2023-12-20T11:44:35;111.30;;;65.67;;
12784;SDS011;6456;42.680;23.260;2023-12-20T11:47:03;121.00;;;68.60;;
12784;SDS011;6456;42.680;23.260;2023-12-20T11:49:31;118.83;;;68.77;;
12784;SDS011;6456;42.680;23.260;2023-12-20T11:51:58;135.10;;;71.27;;
12784;SDS011;6456;42.680;23.260;2023-12-20T11:54:25;121.37;;;68.77;;
12784;SDS011;6456;42.680;23.260;2023-12-20T11:56:52;133.03;;;71.63;;
12784;SDS011;6456;42.680;23.260;2023-12-20T11:59:19;123.80;;;70.53;;
12784;SDS011;6456;42.680;23.260;2023-12-20T12:01:51;118.97;;;69.80;;
12784;SDS011;6456;42.680;23.260;2023-12-20T12:04:18;116.70;;;70.00;;
12784;SDS011;6456;42.680;23.260;2023-12-20T12:06:45;119.57;;;70.50;;
12784;SDS011;6456;42.680;23.260;2023-12-20T12:09:12;131.67;;;73.70;;
12784;SDS011;6456;42.680;23.260;2023-12-20T12:11:40;134.57;;;74.00;;
12784;SDS011;6456;42.680;23.260;2023-12-20T12:14:07;126.93;;;74.47;;
12784;SDS011;6456;42.680;23.260;2023-12-20T12:16:37;138.40;;;77.23;;
12784;SDS011;6456;42.680;23.260;2023-12-20T12:19:06;124.43;;;70.13;;
12784;SDS011;6456;42.680;23.260;2023-12-20T12:24:38;136.47;;;74.57;;
12784;SDS011;6456;42.680;23.260;2023-12-20T12:27:05;129.90;;;71.87;;
12784;SDS011;6456;42.680;23.260;2023-12-20T12:29:33;133.60;;;72.63;;
12784;SDS011;6456;42.680;23.260;2023-12-20T12:32:00;127.50;;;73.43;;
12784;SDS011;6456;42.680;23.260;2023-12-20T12:34:35;125.30;;;72.70;;
12784;SDS011;6456;42.680;23.260;2023-12-20T12:37:03;121.90;;;70.13;;
12784;SDS011;6456;42.680;23.260;2023-12-20T12:39:31;125.13;;;67.43;;
12784;SDS011;6456;42.680;23.260;2023-12-20T12:42:00;124.00;;;68.10;;
12784;SDS011;6456;42.680;23.260;2023-12-20T12:44:30;119.03;;;67.83;;
12784;SDS011;6456;42.680;23.260;2023-12-20T12:46:57;111.87;;;62.13;;
12784;SDS011;6456;42.680;23.260;2023-12-20T12:49:29;102.40;;;59.17;;
12784;SDS011;6456;42.680;23.260;2023-12-20T12:51:58;111.53;;;62.60;;
12784;SDS011;6456;42.680;23.260;2023-12-20T12:54:25;100.37;;;56.97;;
12784;SDS011;6456;42.680;23.260;2023-12-20T12:56:52;103.03;;;60.33;;
12784;SDS011;6456;42.680;23.260;2023-12-20T12:59:19;108.03;;;57.57;;
12784;SDS011;6456;42.680;23.260;2023-12-20T13:01:46;111.07;;;63.70;;
12784;SDS011;6456;42.680;23.260;2023-12-20T13:04:13;112.97;;;62.27;;
12784;SDS011;6456;42.680;23.260;2023-12-20T13:06:41;111.67;;;61.73;;
12784;SDS011;6456;42.680;23.260;2023-12-20T13:09:09;115.77;;;59.97;;
12784;SDS011;6456;42.680;23.260;2023-12-20T13:11:36;114.40;;;62.37;;
12784;SDS011;6456;42.680;23.260;2023-12-20T13:14:05;112.67;;;59.87;;
12784;SDS011;6456;42.680;23.260;2023-12-20T13:16:46;104.87;;;58.90;;
12784;SDS011;6456;42.680;23.260;2023-12-20T13:19:13;110.77;;;58.73;;
12784;SDS011;6456;42.680;23.260;2023-12-20T13:21:40;112.07;;;59.57;;
12784;SDS011;6456;42.680;23.260;2023-12-20T13:24:08;109.23;;;60.07;;
12784;SDS011;6456;42.680;23.260;2023-12-20T13:26:37;107.83;;;58.37;;
12784;SDS011;6456;42.680;23.260;2023-12-20T13:29:07;98.87;;;57.63;;
12784;SDS011;6456;42.680;23.260;2023-12-20T13:31:34;98.87;;;57.07;;
12784;SDS011;6456;42.680;23.260;2023-12-20T13:34:05;106.63;;;60.50;;
12784;SDS011;6456;42.680;23.260;2023-12-20T13:36:32;108.33;;;58.63;;
12784;SDS011;6456;42.680;23.260;2023-12-20T13:39:01;106.73;;;59.00;;
12784;SDS011;6456;42.680;23.260;2023-12-20T13:41:31;108.73;;;59.13;;
12784;SDS011;6456;42.680;23.260;2023-12-20T13:43:58;107.47;;;61.10;;
12784;SDS011;6456;42.680;23.260;2023-12-20T13:46:26;145.83;;;82.37;;
12784;SDS011;6456;42.680;23.260;2023-12-20T13:48:56;142.27;;;78.97;;
12784;SDS011;6456;42.680;23.260;2023-12-20T13:51:27;140.97;;;80.37;;
12784;SDS011;6456;42.680;23.260;2023-12-20T13:53:54;143.97;;;80.53;;
12784;SDS011;6456;42.680;23.260;2023-12-20T13:56:21;137.63;;;77.77;;
12784;SDS011;6456;42.680;23.260;2023-12-20T13:58:49;134.67;;;77.50;;
12784;SDS011;6456;42.680;23.260;2023-12-20T14:01:16;142.60;;;76.23;;
12784;SDS011;6456;42.680;23.260;2023-12-20T14:03:44;138.10;;;76.37;;
12784;SDS011;6456;42.680;23.260;2023-12-20T14:06:12;136.80;;;77.70;;
12784;SDS011;6456;42.680;23.260;2023-12-20T14:08:40;138.40;;;75.33;;
12784;SDS011;6456;42.680;23.260;2023-12-20T14:11:08;126.50;;;71.47;;
12784;SDS011;6456;42.680;23.260;2023-12-20T14:13:40;148.73;;;79.27;;
12784;SDS011;6456;42.680;23.260;2023-12-20T14:16:12;146.97;;;81.80;;
12784;SDS011;6456;42.680;23.260;2023-12-20T14:18:39;149.10;;;77.07;;
12784;SDS011;6456;42.680;23.260;2023-12-20T14:21:08;152.23;;;79.87;;
12784;SDS011;6456;42.680;23.260;2023-12-20T14:23:37;146.43;;;80.40;;
12784;SDS011;6456;42.680;23.260;2023-12-20T14:26:04;148.63;;;81.20;;
12784;SDS011;6456;42.680;23.260;2023-12-20T14:28:31;147.07;;;78.37;;